sensor_id;sensor_type;location;lat;lon;timestamp;pressure;altitude;pressure_sealevel;temperature;humidity
49055;BME280;35405;52.344;14.530;2023-06-10T05:34:38;101036.56;;;17.51;69.73
49055;BME280;35405;52.344;14.530;2023-06-10T05:37:03;101038.81;;;17.38;70.92
49055;BME280;35405;52.344;14.530;2023-06-10T05:39:29;101036.59;;;17.28;71.23
49055;BME280;35405;52.344;14.530;2023-06-10T05:41:54;101033.28;;;17.22;71.64
49055;BME280;35405;52.344;14.530;2023-06-10T05:44:19;101044.50;;;17.50;71.49
49055;BME280;35405;52.344;14.530;2023-06-10T05:46:44;101042.91;;;18.11;70.55
49055;BME280;35405;52.344;14.530;2023-06-10T05:49:10;101042.41;;;18.44;68.83
49055;BME280;35405;52.344;14.530;2023-06-10T05:51:35;101040.16;;;18.76;68.16
49055;BME280;35405;52.344;14.530;2023-06-10T05:54:01;101039.88;;;19.21;67.03
49055;BME280;35405;52.344;14.530;2023-06-10T05:56:27;101045.16;;;19.21;66.30
49055;BME280;35405;52.344;14.530;2023-06-10T05:58:52;101055.59;;;19.42;64.89
49055;BME280;35405;52.344;14.530;2023-06-10T06:01:17;101050.09;;;19.46;64.20
49055;BME280;35405;52.344;14.530;2023-06-10T06:03:42;101045.13;;;19.78;64.95
49055;BME280;35405;52.344;14.530;2023-06-10T06:06:07;101046.81;;;20.33;63.31
49055;BME280;35405;52.344;14.530;2023-06-10T06:08:33;101050.34;;;20.49;62.41
49055;BME280;35405;52.344;14.530;2023-06-10T06:10:58;101057.34;;;20.15;62.23
49055;BME280;35405;52.344;14.530;2023-06-10T06:13:23;101062.44;;;20.18;62.66
49055;BME280;35405;52.344;14.530;2023-06-10T06:15:49;101059.19;;;20.13;62.47
49055;BME280;35405;52.344;14.530;2023-06-10T06:18:14;101073.31;;;19.93;62.23
49055;BME280;35405;52.344;14.530;2023-06-10T06:20:39;101066.97;;;19.42;63.39
49055;BME280;35405;52.344;14.530;2023-06-10T06:23:05;101065.38;;;19.19;64.56
49055;BME280;35405;52.344;14.530;2023-06-10T06:25:30;101074.44;;;19.14;64.68
49055;BME280;35405;52.344;14.530;2023-06-10T06:27:55;101077.25;;;19.47;64.43
49055;BME280;35405;52.344;14.530;2023-06-10T06:30:20;101072.66;;;20.07;63.40
49055;BME280;35405;52.344;14.530;2023-06-10T06:32:45;101065.84;;;20.20;62.16
49055;BME280;35405;52.344;14.530;2023-06-10T06:35:11;101078.66;;;20.45;61.93
49055;BME280;35405;52.344;14.530;2023-06-10T06:37:36;101081.03;;;20.50;60.94
49055;BME280;35405;52.344;14.530;2023-06-10T06:40:01;101080.25;;;20.48;60.91
49055;BME280;35405;52.344;14.530;2023-06-10T06:42:26;101084.63;;;20.66;61.01
49055;BME280;35405;52.344;14.530;2023-06-10T06:44:51;101092.59;;;20.65;60.34
49055;BME280;35405;52.344;14.530;2023-06-10T06:47:17;101088.56;;;21.08;60.09
49055;BME280;35405;52.344;14.530;2023-06-10T06:49:45;101085.44;;;21.17;59.63
49055;BME280;35405;52.344;14.530;2023-06-10T06:52:11;101096.69;;;21.54;58.13
49055;BME280;35405;52.344;14.530;2023-06-10T06:54:36;101105.34;;;21.88;57.68
49055;BME280;35405;52.344;14.530;2023-06-10T06:57:01;101106.59;;;22.12;55.45
49055;BME280;35405;52.344;14.530;2023-06-10T06:59:27;101106.88;;;21.92;56.12
49055;BME280;35405;52.344;14.530;2023-06-10T07:01:52;101110.19;;;22.11;54.80
49055;BME280;35405;52.344;14.530;2023-06-10T07:04:19;101122.63;;;22.55;51.13
49055;BME280;35405;52.344;14.530;2023-06-10T07:06:46;101131.06;;;22.91;47.97
49055;BME280;35405;52.344;14.530;2023-06-10T07:09:11;101123.06;;;22.92;47.01
49055;BME280;35405;52.344;14.530;2023-06-10T07:11:37;101133.56;;;22.94;46.85
49055;BME280;35405;52.344;14.530;2023-06-10T07:14:02;101120.09;;;22.98;46.46
49055;BME280;35405;52.344;14.530;2023-06-10T07:16:27;101127.41;;;22.79;46.02
49055;BME280;35405;52.344;14.530;2023-06-10T07:18:53;101121.53;;;22.44;46.64
49055;BME280;35405;52.344;14.530;2023-06-10T07:21:18;101123.25;;;22.45;48.01
49055;BME280;35405;52.344;14.530;2023-06-10T07:23:43;101120.34;;;22.49;47.03
49055;BME280;35405;52.344;14.530;2023-06-10T07:26:09;101125.34;;;22.54;47.23
49055;BME280;35405;52.344;14.530;2023-06-10T07:28:36;101116.72;;;22.80;46.03
49055;BME280;35405;52.344;14.530;2023-06-10T07:31:01;101122.78;;;22.82;45.53
49055;BME280;35405;52.344;14.530;2023-06-10T07:33:26;101119.44;;;23.09;46.19
49055;BME280;35405;52.344;14.530;2023-06-10T07:35:52;101123.84;;;23.37;44.38
49055;BME280;35405;52.344;14.530;2023-06-10T07:38:17;101119.66;;;23.76;43.52
49055;BME280;35405;52.344;14.530;2023-06-10T07:40:42;101119.25;;;23.82;43.18
49055;BME280;35405;52.344;14.530;2023-06-10T07:43:07;101126.06;;;23.86;42.74
49055;BME280;35405;52.344;14.530;2023-06-10T07:45:32;101127.19;;;23.96;42.22
49055;BME280;35405;52.344;14.530;2023-06-10T07:47:58;101126.75;;;23.61;42.74
49055;BME280;35405;52.344;14.530;2023-06-10T07:50:23;101120.13;;;23.54;42.86
49055;BME280;35405;52.344;14.530;2023-06-10T07:52:48;101127.88;;;23.71;42.12
49055;BME280;35405;52.344;14.530;2023-06-10T07:55:13;101118.59;;;23.64;41.84
49055;BME280;35405;52.344;14.530;2023-06-10T07:57:38;101122.16;;;23.36;43.08
49055;BME280;35405;52.344;14.530;2023-06-10T08:00:04;101126.13;;;23.43;43.18
49055;BME280;35405;52.344;14.530;2023-06-10T08:02:30;101121.44;;;23.61;42.29
49055;BME280;35405;52.344;14.530;2023-06-10T08:04:55;101123.63;;;23.69;42.45
49055;BME280;35405;52.344;14.530;2023-06-10T08:07:20;101120.63;;;23.32;41.93
49055;BME280;35405;52.344;14.530;2023-06-10T08:09:46;101123.44;;;23.57;42.17
49055;BME280;35405;52.344;14.530;2023-06-10T08:12:12;101120.91;;;23.97;41.42
49055;BME280;35405;52.344;14.530;2023-06-10T08:14:37;101120.84;;;24.12;41.31
49055;BME280;35405;52.344;14.530;2023-06-10T08:17:03;101119.09;;;24.25;39.84
49055;BME280;35405;52.344;14.530;2023-06-10T08:19:30;101126.19;;;24.52;39.71
49055;BME280;35405;52.344;14.530;2023-06-10T08:21:55;101125.13;;;24.67;39.26
49055;BME280;35405;52.344;14.530;2023-06-10T08:24:21;101121.34;;;24.71;38.00
49055;BME280;35405;52.344;14.530;2023-06-10T08:26:46;101134.53;;;24.98;36.25
49055;BME280;35405;52.344;14.530;2023-06-10T08:29:11;101133.00;;;25.07;36.10
49055;BME280;35405;52.344;14.530;2023-06-10T08:31:36;101132.06;;;25.08;35.72
49055;BME280;35405;52.344;14.530;2023-06-10T08:34:02;101139.31;;;25.31;35.14
49055;BME280;35405;52.344;14.530;2023-06-10T08:36:27;101135.69;;;25.32;35.36
49055;BME280;35405;52.344;14.530;2023-06-10T08:38:52;101137.88;;;25.00;35.61
49055;BME280;35405;52.344;14.530;2023-06-10T08:41:17;101136.75;;;24.91;36.13
49055;BME280;35405;52.344;14.530;2023-06-10T08:43:44;101138.97;;;25.23;35.44
49055;BME280;35405;52.344;14.530;2023-06-10T08:46:10;101129.53;;;25.32;34.70
49055;BME280;35405;52.344;14.530;2023-06-10T08:48:38;101135.69;;;25.32;34.96
49055;BME280;35405;52.344;14.530;2023-06-10T08:51:06;101137.19;;;25.86;34.97
49055;BME280;35405;52.344;14.530;2023-06-10T08:53:33;101141.13;;;26.04;33.85
49055;BME280;35405;52.344;14.530;2023-06-10T08:56:01;101140.56;;;26.12;34.34
49055;BME280;35405;52.344;14.530;2023-06-10T08:58:29;101145.19;;;25.48;34.90
49055;BME280;35405;52.344;14.530;2023-06-10T09:00:54;101144.41;;;25.22;35.78
49055;BME280;35405;52.344;14.530;2023-06-10T09:03:20;101144.84;;;25.15;35.81
49055;BME280;35405;52.344;14.530;2023-06-10T09:05:46;101153.81;;;25.00;36.25
49055;BME280;35405;52.344;14.530;2023-06-10T09:08:11;101141.94;;;25.06;35.92
49055;BME280;35405;52.344;14.530;2023-06-10T09:10:37;101141.09;;;25.05;35.64
49055;BME280;35405;52.344;14.530;2023-06-10T09:13:03;101136.28;;;25.10;36.14
49055;BME280;35405;52.344;14.530;2023-06-10T09:15:28;101145.22;;;25.09;36.41
49055;BME280;35405;52.344;14.530;2023-06-10T09:17:53;101146.31;;;25.19;35.72
49055;BME280;35405;52.344;14.530;2023-06-10T09:20:18;101148.09;;;24.93;35.56
49055;BME280;35405;52.344;14.530;2023-06-10T09:22:44;101151.47;;;24.70;35.88
49055;BME280;35405;52.344;14.530;2023-06-10T09:25:12;101154.13;;;24.57;36.18
49055;BME280;35405;52.344;14.530;2023-06-10T09:27:44;101155.03;;;24.56;36.47
49055;BME280;35405;52.344;14.530;2023-06-10T09:30:23;101160.91;;;24.61;36.50
49055;BME280;35405;52.344;14.530;2023-06-10T09:32:50;101165.84;;;24.53;36.60
49055;BME280;35405;52.344;14.530;2023-06-10T09:35:15;101160.06;;;24.86;36.07
49055;BME280;35405;52.344;14.530;2023-06-10T09:37:40;101154.16;;;25.08;35.66
49055;BME280;35405;52.344;14.530;2023-06-10T09:40:06;101159.34;;;24.97;36.31
49055;BME280;35405;52.344;14.530;2023-06-10T09:42:37;101151.81;;;25.42;35.49
49055;BME280;35405;52.344;14.530;2023-06-10T09:45:03;101153.16;;;25.48;36.01
49055;BME280;35405;52.344;14.530;2023-06-10T09:47:29;101148.22;;;25.30;35.91
49055;BME280;35405;52.344;14.530;2023-06-10T09:49:54;101147.63;;;25.51;36.10
49055;BME280;35405;52.344;14.530;2023-06-10T09:52:23;101153.63;;;25.91;35.57
49055;BME280;35405;52.344;14.530;2023-06-10T09:54:48;101157.47;;;25.87;34.83
49055;BME280;35405;52.344;14.530;2023-06-10T09:57:14;101165.72;;;25.95;34.85
49055;BME280;35405;52.344;14.530;2023-06-10T09:59:41;101157.22;;;25.53;35.89
49055;BME280;35405;52.344;14.530;2023-06-10T10:02:06;101171.97;;;24.81;36.68
49055;BME280;35405;52.344;14.530;2023-06-10T10:04:37;101156.66;;;24.59;37.56
49055;BME280;35405;52.344;14.530;2023-06-10T10:07:02;101161.50;;;24.25;37.67
49055;BME280;35405;52.344;14.530;2023-06-10T10:09:28;101167.38;;;24.30;37.93
49055;BME280;35405;52.344;14.530;2023-06-10T10:11:53;101159.63;;;24.67;37.67
49055;BME280;35405;52.344;14.530;2023-06-10T10:14:19;101163.38;;;25.03;37.18
49055;BME280;35405;52.344;14.530;2023-06-10T10:16:45;101158.41;;;25.24;37.37
49055;BME280;35405;52.344;14.530;2023-06-10T10:19:12;101160.19;;;25.10;37.35
49055;BME280;35405;52.344;14.530;2023-06-10T10:21:40;101151.06;;;25.02;37.70
49055;BME280;35405;52.344;14.530;2023-06-10T10:26:39;101149.31;;;25.15;37.40
49055;BME280;35405;52.344;14.530;2023-06-10T10:29:24;101142.91;;;25.30;37.48
49055;BME280;35405;52.344;14.530;2023-06-10T10:31:50;101156.50;;;25.38;36.88
49055;BME280;35405;52.344;14.530;2023-06-10T10:34:16;101137.34;;;25.59;37.19
49055;BME280;35405;52.344;14.530;2023-06-10T10:36:44;101140.47;;;25.89;36.98
49055;BME280;35405;52.344;14.530;2023-06-10T10:39:10;101143.97;;;25.77;37.34
49055;BME280;35405;52.344;14.530;2023-06-10T10:41:37;101144.16;;;25.37;37.53
49055;BME280;35405;52.344;14.530;2023-06-10T10:44:02;101145.03;;;25.25;38.36
49055;BME280;35405;52.344;14.530;2023-06-10T10:46:34;101143.31;;;24.98;39.22
49055;BME280;35405;52.344;14.530;2023-06-10T10:49:06;101144.72;;;24.91;39.62
49055;BME280;35405;52.344;14.530;2023-06-10T10:51:33;101145.00;;;24.87;40.24
49055;BME280;35405;52.344;14.530;2023-06-10T10:54:17;101144.00;;;25.15;39.94
49055;BME280;35405;52.344;14.530;2023-06-10T10:59:26;101143.59;;;25.95;38.12
49055;BME280;35405;52.344;14.530;2023-06-10T11:02:07;101137.44;;;25.94;38.43
49055;BME280;35405;52.344;14.530;2023-06-10T11:04:32;101137.66;;;25.91;38.35
49055;BME280;35405;52.344;14.530;2023-06-10T11:06:58;101142.97;;;26.15;37.70
49055;BME280;35405;52.344;14.530;2023-06-10T11:09:30;101137.53;;;26.41;37.70
49055;BME280;35405;52.344;14.530;2023-06-10T11:11:59;101136.56;;;26.42;36.29
49055;BME280;35405;52.344;14.530;2023-06-10T11:14:27;101146.34;;;26.30;37.43
49055;BME280;35405;52.344;14.530;2023-06-10T11:16:53;101143.69;;;26.06;37.96
49055;BME280;35405;52.344;14.530;2023-06-10T11:19:34;101134.28;;;26.13;38.55
49055;BME280;35405;52.344;14.530;2023-06-10T11:22:03;101133.34;;;26.49;38.20
49055;BME280;35405;52.344;14.530;2023-06-10T11:24:29;101129.19;;;26.45;38.47
49055;BME280;35405;52.344;14.530;2023-06-10T11:26:54;101122.16;;;26.68;38.49
49055;BME280;35405;52.344;14.530;2023-06-10T11:29:20;101129.63;;;26.52;37.66
49055;BME280;35405;52.344;14.530;2023-06-10T11:31:48;101126.41;;;26.59;37.35
49055;BME280;35405;52.344;14.530;2023-06-10T11:34:14;101127.75;;;26.76;38.01
49055;BME280;35405;52.344;14.530;2023-06-10T11:36:40;101129.97;;;26.94;36.82
49055;BME280;35405;52.344;14.530;2023-06-10T11:39:07;101129.97;;;26.94;36.02
49055;BME280;35405;52.344;14.530;2023-06-10T11:41:33;101133.94;;;26.99;35.93
49055;BME280;35405;52.344;14.530;2023-06-10T11:44:03;101129.09;;;26.82;36.06
49055;BME280;35405;52.344;14.530;2023-06-10T11:46:28;101122.69;;;26.84;35.56
49055;BME280;35405;52.344;14.530;2023-06-10T11:48:54;101123.53;;;26.96;35.71
49055;BME280;35405;52.344;14.530;2023-06-10T11:51:20;101124.13;;;26.77;35.99
49055;BME280;35405;52.344;14.530;2023-06-10T11:53:48;101116.06;;;26.90;35.93
49055;BME280;35405;52.344;14.530;2023-06-10T11:56:13;101111.66;;;26.89;35.05
49055;BME280;35405;52.344;14.530;2023-06-10T11:58:44;101113.38;;;26.90;35.39
49055;BME280;35405;52.344;14.530;2023-06-10T12:01:09;101113.13;;;26.82;36.09
49055;BME280;35405;52.344;14.530;2023-06-10T12:03:35;101118.63;;;27.14;35.06
49055;BME280;35405;52.344;14.530;2023-06-10T12:06:03;101120.28;;;27.04;34.73
49055;BME280;35405;52.344;14.530;2023-06-10T12:08:29;101110.59;;;27.03;35.02
49055;BME280;35405;52.344;14.530;2023-06-10T12:10:54;101114.97;;;27.49;34.54
49055;BME280;35405;52.344;14.530;2023-06-10T12:13:20;101119.47;;;27.37;34.37
49055;BME280;35405;52.344;14.530;2023-06-10T12:15:45;101119.19;;;27.63;34.31
49055;BME280;35405;52.344;14.530;2023-06-10T12:20:43;101108.56;;;27.29;34.23
49055;BME280;35405;52.344;14.530;2023-06-10T12:23:09;101095.00;;;26.98;33.44
49055;BME280;35405;52.344;14.530;2023-06-10T12:25:34;101097.88;;;27.06;33.40
49055;BME280;35405;52.344;14.530;2023-06-10T12:28:01;101090.16;;;27.48;32.79
49055;BME280;35405;52.344;14.530;2023-06-10T12:30:27;101085.69;;;27.92;31.87
49055;BME280;35405;52.344;14.530;2023-06-10T12:32:53;101084.88;;;28.13;31.59
49055;BME280;35405;52.344;14.530;2023-06-10T12:35:19;101088.59;;;28.21;30.81
49055;BME280;35405;52.344;14.530;2023-06-10T12:37:58;101079.25;;;28.48;29.12
49055;BME280;35405;52.344;14.530;2023-06-10T12:42:54;101076.13;;;28.22;26.89
49055;BME280;35405;52.344;14.530;2023-06-10T12:48:03;101063.72;;;28.84;27.42
49055;BME280;35405;52.344;14.530;2023-06-10T12:50:29;101066.03;;;28.98;26.82
49055;BME280;35405;52.344;14.530;2023-06-10T12:52:55;101060.91;;;28.85;26.52
49055;BME280;35405;52.344;14.530;2023-06-10T12:55:20;101054.84;;;29.04;26.92
49055;BME280;35405;52.344;14.530;2023-06-10T12:57:49;101053.38;;;29.31;26.41
49055;BME280;35405;52.344;14.530;2023-06-10T13:00:15;101062.22;;;28.91;23.89
49055;BME280;35405;52.344;14.530;2023-06-10T13:02:40;101059.41;;;28.41;25.03
49055;BME280;35405;52.344;14.530;2023-06-10T13:05:06;101058.94;;;28.15;25.55
49055;BME280;35405;52.344;14.530;2023-06-10T13:07:31;101052.00;;;28.75;24.74
49055;BME280;35405;52.344;14.530;2023-06-10T13:09:56;101050.53;;;28.92;24.61
49055;BME280;35405;52.344;14.530;2023-06-10T13:12:21;101044.06;;;29.25;24.63
49055;BME280;35405;52.344;14.530;2023-06-10T13:14:47;101050.00;;;29.29;25.58
49055;BME280;35405;52.344;14.530;2023-06-10T13:17:12;101041.88;;;29.40;25.58
49055;BME280;35405;52.344;14.530;2023-06-10T13:19:37;101038.69;;;29.85;24.84
49055;BME280;35405;52.344;14.530;2023-06-10T13:22:02;101038.16;;;31.04;25.03
49055;BME280;35405;52.344;14.530;2023-06-10T13:24:27;101046.69;;;30.33;24.75
49055;BME280;35405;52.344;14.530;2023-06-10T13:26:53;101052.00;;;28.44;27.03
49055;BME280;35405;52.344;14.530;2023-06-10T13:29:19;101042.16;;;30.53;23.94
49055;BME280;35405;52.344;14.530;2023-06-10T13:31:44;101052.09;;;31.81;23.46
49055;BME280;35405;52.344;14.530;2023-06-10T13:34:10;101046.50;;;31.74;23.18
49055;BME280;35405;52.344;14.530;2023-06-10T13:36:36;101042.13;;;30.63;24.41
49055;BME280;35405;52.344;14.530;2023-06-10T13:39:01;101045.19;;;29.92;25.64
49055;BME280;35405;52.344;14.530;2023-06-10T13:41:26;101048.44;;;28.65;27.21
49055;BME280;35405;52.344;14.530;2023-06-10T13:43:53;101044.88;;;27.92;28.96
49055;BME280;35405;52.344;14.530;2023-06-10T13:46:19;101035.91;;;28.14;27.67
49055;BME280;35405;52.344;14.530;2023-06-10T13:48:46;101032.13;;;28.58;27.73
49055;BME280;35405;52.344;14.530;2023-06-10T13:51:11;101030.38;;;28.27;26.54
49055;BME280;35405;52.344;14.530;2023-06-10T13:53:36;101031.66;;;28.11;24.60
49055;BME280;35405;52.344;14.530;2023-06-10T13:56:02;101024.03;;;28.39;25.47
49055;BME280;35405;52.344;14.530;2023-06-10T13:58:27;101026.94;;;28.87;24.54
49055;BME280;35405;52.344;14.530;2023-06-10T14:00:52;101026.03;;;28.25;23.59
49055;BME280;35405;52.344;14.530;2023-06-10T14:03:18;101035.53;;;28.39;24.76
49055;BME280;35405;52.344;14.530;2023-06-10T14:05:43;101035.31;;;28.31;25.01
49055;BME280;35405;52.344;14.530;2023-06-10T14:08:08;101024.47;;;28.02;25.27
49055;BME280;35405;52.344;14.530;2023-06-10T14:10:33;101034.22;;;28.13;24.88
49055;BME280;35405;52.344;14.530;2023-06-10T14:12:59;101031.72;;;28.00;23.77
49055;BME280;35405;52.344;14.530;2023-06-10T14:15:25;101023.72;;;28.21;23.96
49055;BME280;35405;52.344;14.530;2023-06-10T14:17:50;101022.50;;;28.25;23.44
49055;BME280;35405;52.344;14.530;2023-06-10T14:20:15;101025.28;;;28.23;23.64
49055;BME280;35405;52.344;14.530;2023-06-10T14:22:41;101030.13;;;28.30;24.13
49055;BME280;35405;52.344;14.530;2023-06-10T14:25:06;101026.28;;;28.22;23.43
49055;BME280;35405;52.344;14.530;2023-06-10T14:27:31;101027.78;;;28.15;23.24
49055;BME280;35405;52.344;14.530;2023-06-10T14:29:57;101028.63;;;28.16;22.93
49055;BME280;35405;52.344;14.530;2023-06-10T14:32:22;101027.78;;;28.15;23.19
49055;BME280;35405;52.344;14.530;2023-06-10T14:34:47;101028.53;;;28.27;23.15
49055;BME280;35405;52.344;14.530;2023-06-10T14:37:12;101029.06;;;28.21;22.59
49055;BME280;35405;52.344;14.530;2023-06-10T14:39:37;101033.03;;;28.27;22.62
49055;BME280;35405;52.344;14.530;2023-06-10T14:42:03;101030.63;;;28.23;22.63
49055;BME280;35405;52.344;14.530;2023-06-10T14:44:28;101033.22;;;28.35;22.33
49055;BME280;35405;52.344;14.530;2023-06-10T14:46:54;101043.63;;;28.38;22.03
49055;BME280;35405;52.344;14.530;2023-06-10T14:49:19;101026.94;;;28.36;22.61
49055;BME280;35405;52.344;14.530;2023-06-10T14:51:44;101035.47;;;28.51;22.25
49055;BME280;35405;52.344;14.530;2023-06-10T14:54:10;101036.94;;;28.22;22.19
49055;BME280;35405;52.344;14.530;2023-06-10T14:56:35;101035.72;;;28.06;22.55
49055;BME280;35405;52.344;14.530;2023-06-10T14:59:00;101035.88;;;27.93;22.42
49055;BME280;35405;52.344;14.530;2023-06-10T15:01:26;101022.78;;;28.22;22.79
49055;BME280;35405;52.344;14.530;2023-06-10T15:03:51;101035.63;;;27.96;21.95
49055;BME280;35405;52.344;14.530;2023-06-10T15:06:16;101034.47;;;27.89;22.75
49055;BME280;35405;52.344;14.530;2023-06-10T15:08:47;101029.47;;;27.95;22.94
49055;BME280;35405;52.344;14.530;2023-06-10T15:11:13;101025.91;;;27.63;23.33
49055;BME280;35405;52.344;14.530;2023-06-10T15:13:38;101030.72;;;27.25;24.17
49055;BME280;35405;52.344;14.530;2023-06-10T15:16:04;101023.00;;;27.22;23.72
49055;BME280;35405;52.344;14.530;2023-06-10T15:18:29;101025.75;;;27.32;23.74
49055;BME280;35405;52.344;14.530;2023-06-10T15:20:54;101023.41;;;27.50;23.50
49055;BME280;35405;52.344;14.530;2023-06-10T15:23:20;101022.31;;;27.52;23.89
49055;BME280;35405;52.344;14.530;2023-06-10T15:25:45;101029.38;;;27.42;23.19
49055;BME280;35405;52.344;14.530;2023-06-10T15:28:11;101026.59;;;27.33;22.91
49055;BME280;35405;52.344;14.530;2023-06-10T15:30:37;101017.97;;;27.40;23.28
49055;BME280;35405;52.344;14.530;2023-06-10T15:33:02;101023.81;;;27.34;23.60
49055;BME280;35405;52.344;14.530;2023-06-10T15:35:27;101026.84;;;27.41;23.42
49055;BME280;35405;52.344;14.530;2023-06-10T15:37:53;101026.34;;;27.36;23.92
49055;BME280;35405;52.344;14.530;2023-06-10T15:40:18;101024.44;;;27.26;24.00
49055;BME280;35405;52.344;14.530;2023-06-10T15:42:43;101020.56;;;27.08;24.38
49055;BME280;35405;52.344;14.530;2023-06-10T15:45:08;101024.66;;;27.12;24.56
49055;BME280;35405;52.344;14.530;2023-06-10T15:47:34;101027.81;;;27.28;24.68
49055;BME280;35405;52.344;14.530;2023-06-10T15:49:59;101020.19;;;27.35;24.52
49055;BME280;35405;52.344;14.530;2023-06-10T15:52:24;101020.03;;;27.37;24.84
49055;BME280;35405;52.344;14.530;2023-06-10T15:54:49;101020.69;;;27.29;24.59
49055;BME280;35405;52.344;14.530;2023-06-10T15:57:14;101016.31;;;27.17;25.05
49055;BME280;35405;52.344;14.530;2023-06-10T15:59:40;101011.75;;;27.19;25.44
49055;BME280;35405;52.344;14.530;2023-06-10T16:02:05;101022.41;;;27.19;25.29
49055;BME280;35405;52.344;14.530;2023-06-10T16:04:30;101017.06;;;27.19;25.45
49055;BME280;35405;52.344;14.530;2023-06-10T16:06:56;101020.31;;;27.22;25.75
49055;BME280;35405;52.344;14.530;2023-06-10T16:09:22;101016.81;;;27.11;25.63
49055;BME280;35405;52.344;14.530;2023-06-10T16:11:47;101022.25;;;27.09;26.06
49055;BME280;35405;52.344;14.530;2023-06-10T16:14:12;101024.94;;;26.98;25.82
49055;BME280;35405;52.344;14.530;2023-06-10T16:16:38;101021.19;;;27.00;26.52
49055;BME280;35405;52.344;14.530;2023-06-10T16:19:03;101018.50;;;27.12;25.93
49055;BME280;35405;52.344;14.530;2023-06-10T16:21:28;101025.88;;;27.08;25.86
49055;BME280;35405;52.344;14.530;2023-06-10T16:23:53;101015.88;;;27.00;26.00
49055;BME280;35405;52.344;14.530;2023-06-10T16:26:18;101020.22;;;27.01;26.01
49055;BME280;35405;52.344;14.530;2023-06-10T16:28:44;101022.28;;;26.98;25.96
49055;BME280;35405;52.344;14.530;2023-06-10T16:31:09;101016.09;;;26.97;26.13
49055;BME280;35405;52.344;14.530;2023-06-10T16:33:34;101021.16;;;26.89;26.10
49055;BME280;35405;52.344;14.530;2023-06-10T16:36:01;101023.84;;;26.89;26.45
49055;BME280;35405;52.344;14.530;2023-06-10T16:38:26;101016.09;;;26.97;26.67
49055;BME280;35405;52.344;14.530;2023-06-10T16:40:51;101029.41;;;26.97;26.74
49055;BME280;35405;52.344;14.530;2023-06-10T16:43:16;101025.56;;;26.90;26.83
49055;BME280;35405;52.344;14.530;2023-06-10T16:45:42;101029.50;;;26.96;26.77
49055;BME280;35405;52.344;14.530;2023-06-10T16:48:07;101029.41;;;26.97;26.95
49055;BME280;35405;52.344;14.530;2023-06-10T16:50:32;101026.00;;;26.95;26.69
49055;BME280;35405;52.344;14.530;2023-06-10T16:52:57;101027.97;;;26.93;27.36
49055;BME280;35405;52.344;14.530;2023-06-10T16:55:23;101033.16;;;26.95;26.71
49055;BME280;35405;52.344;14.530;2023-06-10T16:57:48;101034.72;;;26.86;27.16
49055;BME280;35405;52.344;14.530;2023-06-10T17:00:13;101031.97;;;26.88;26.61
49055;BME280;35405;52.344;14.530;2023-06-10T17:02:40;101030.47;;;26.72;26.90
49055;BME280;35405;52.344;14.530;2023-06-10T17:05:05;101032.91;;;26.64;27.33
49055;BME280;35405;52.344;14.530;2023-06-10T17:07:30;101035.06;;;26.59;27.50
49055;BME280;35405;52.344;14.530;2023-06-10T17:09:55;101033.00;;;26.51;28.06
49055;BME280;35405;52.344;14.530;2023-06-10T17:12:21;101038.66;;;26.47;28.25
49055;BME280;35405;52.344;14.530;2023-06-10T17:14:46;101035.72;;;26.38;28.35
49055;BME280;35405;52.344;14.530;2023-06-10T17:17:11;101043.94;;;26.24;28.45
49055;BME280;35405;52.344;14.530;2023-06-10T17:19:36;101041.63;;;26.20;28.79
49055;BME280;35405;52.344;14.530;2023-06-10T17:22:02;101040.03;;;26.06;28.92
49055;BME280;35405;52.344;14.530;2023-06-10T17:24:27;101041.44;;;25.99;29.38
49055;BME280;35405;52.344;14.530;2023-06-10T17:26:52;101043.81;;;25.90;29.35
49055;BME280;35405;52.344;14.530;2023-06-10T17:29:17;101042.34;;;25.86;29.73
49055;BME280;35405;52.344;14.530;2023-06-10T17:31:43;101047.16;;;25.81;29.59
49055;BME280;35405;52.344;14.530;2023-06-10T17:34:08;101057.34;;;25.75;29.90
49055;BME280;35405;52.344;14.530;2023-06-10T17:36:33;101056.00;;;25.69;30.47
49055;BME280;35405;52.344;14.530;2023-06-10T17:38:58;101055.16;;;25.68;30.16
49055;BME280;35405;52.344;14.530;2023-06-10T17:41:23;101060.94;;;25.62;30.50
49055;BME280;35405;52.344;14.530;2023-06-10T17:43:48;101059.69;;;25.55;30.77
49055;BME280;35405;52.344;14.530;2023-06-10T17:46:14;101060.56;;;25.43;30.59
49055;BME280;35405;52.344;14.530;2023-06-10T17:48:39;101063.56;;;25.38;30.63
49055;BME280;35405;52.344;14.530;2023-06-10T17:51:05;101061.56;;;25.29;30.38
49055;BME280;35405;52.344;14.530;2023-06-10T17:53:30;101062.63;;;25.27;29.97
49055;BME280;35405;52.344;14.530;2023-06-10T17:55:55;101060.53;;;25.19;30.12
49055;BME280;35405;52.344;14.530;2023-06-10T17:58:20;101066.56;;;25.08;30.38
49055;BME280;35405;52.344;14.530;2023-06-10T18:00:45;101071.47;;;25.02;30.50
49055;BME280;35405;52.344;14.530;2023-06-10T18:03:12;101070.06;;;24.96;30.25
49055;BME280;35405;52.344;14.530;2023-06-10T18:05:37;101074.25;;;24.87;30.73
49055;BME280;35405;52.344;14.530;2023-06-10T18:08:02;101075.16;;;24.86;30.64
49055;BME280;35405;52.344;14.530;2023-06-10T18:10:27;101070.63;;;24.76;31.00
49055;BME280;35405;52.344;14.530;2023-06-10T18:12:52;101063.06;;;24.69;31.19
49055;BME280;35405;52.344;14.530;2023-06-10T18:15:18;101077.72;;;24.62;31.57
49055;BME280;35405;52.344;14.530;2023-06-10T18:17:43;101081.19;;;24.50;31.83
49055;BME280;35405;52.344;14.530;2023-06-10T18:20:08;101080.69;;;24.45;31.89